X  Sluiten METAR luchtvaart weer gegevens      LYNI Nis Airport
Temperatuur
14°C Temperatuur
5°C Dauwpunt
55% Vochtigheid



Wind
2 KM/U
1 MPH
0 M/S
1 KTS



Kalm
N
Huidig weer

Helder Helder
Luchtdruk 1013.88 (hPa) - 29.94 (inHg)
Zicht 6 (mijl) - 9.7 (km)
Vliegveld
Vliegveld code LYNI

Locatie : Nis Airport
Afstand: 63 (km)

Metar:
LYNI 241700Z VRB01KT CAVOK 14/05 Q1014 NOSIG

Tijd: 24-02-2024 18:00 CET